Terminal Aerodrome Forecast
Issued by NWS

Home | Current Version | Previous Version | Text Only | Print | Product List | Glossary On
Versions: 1 2 3 4 5 6 7 8 9 10 11 12 13 14 15 16 17
317
FTUS42 KFFC 271728
TAFPDK
TAF
KPDK 271728Z 2718/2818 27008KT P6SM SCT045 SCT200
     FM272000 26009KT P6SM VCSH BKN050
      TEMPO 2720/2724 VRB12G25KT 5SM -TSRA BKN040CB
     FM280000 29004KT P6SM VCSH SCT050 BKN100
     FM280300 VRB03KT P6SM FEW110
     FM281300 28006KT P6SM SCT050=

USA.gov is the U.S. government's official web portal to all federal, state and local government web resources and services.